Time;durP1;ratioP1;P1;durP2;ratioP2;P2;SDS_P1;SDS_P2;PMS_P1;PMS_P2;Temp;Humidity;BMP_temperature;BMP_pressure;BME280_temperature;BME280_humidity;BME280_pressure;Samples;Min_cycle;Max_cycle;Signal;HPM_P1;HPM_P2
2023/06/20 00:02:18;;;;;;;9.77;8.77;;;21.40;99.90;;;;;;5047474;28;20436;-73
2023/06/20 00:05:05;;;;;;;10.13;9.00;;;21.40;99.90;;;;;;5047083;28;20454;-73
2023/06/20 00:07:54;;;;;;;9.97;8.97;;;21.40;99.90;;;;;;5048928;28;20538;-73
2023/06/20 00:10:39;;;;;;;10.37;8.73;;;21.50;99.90;;;;;;5046047;28;20891;-73
2023/06/20 00:13:24;;;;;;;13.10;9.50;;;21.50;99.90;;;;;;5048195;28;20523;-73
2023/06/20 00:16:10;;;;;;;9.73;8.77;;;21.50;99.90;;;;;;5054058;28;20447;-73
2023/06/20 00:18:56;;;;;;;10.17;9.17;;;21.60;99.90;;;;;;5053276;22;20627;-72
2023/06/20 00:21:42;;;;;;;10.03;9.13;;;21.50;99.90;;;;;;5021674;28;20465;-73
2023/06/20 00:24:31;;;;;;;14.63;9.13;;;21.50;99.90;;;;;;5024535;28;20977;-73
2023/06/20 00:27:16;;;;;;;11.50;9.53;;;21.50;99.90;;;;;;5025619;28;20483;-72
2023/06/20 00:30:02;;;;;;;15.47;10.53;;;21.40;99.90;;;;;;5033017;28;20492;-72
2023/06/20 00:32:47;;;;;;;20.07;9.90;;;21.40;99.90;;;;;;5018460;28;20453;-73
2023/06/20 00:35:33;;;;;;;11.03;9.93;;;21.50;99.90;;;;;;5021352;28;20449;-73
2023/06/20 00:38:18;;;;;;;11.03;9.93;;;21.40;99.90;;;;;;5032493;28;21180;-73
2023/06/20 00:41:05;;;;;;;13.90;10.50;;;21.30;99.90;;;;;;5031246;28;20813;-73
2023/06/20 00:43:51;;;;;;;15.03;11.43;;;21.30;99.90;;;;;;5024725;28;20452;-72
2023/06/20 00:46:38;;;;;;;17.40;11.23;;;21.30;99.90;;;;;;5027033;28;20464;-72
2023/06/20 00:49:23;;;;;;;18.47;10.67;;;21.30;99.90;;;;;;5023325;28;20472;-73
2023/06/20 00:52:09;;;;;;;16.53;11.17;;;21.00;99.90;;;;;;5023477;28;20444;-72
2023/06/20 00:54:55;;;;;;;23.43;11.47;;;20.90;99.90;;;;;;5026954;28;20810;-72
2023/06/20 00:57:44;;;;;;;21.63;11.30;;;21.00;99.90;;;;;;5028132;28;20456;-72
2023/06/20 01:00:33;;;;;;;14.50;11.40;;;21.20;99.90;;;;;;5022861;28;20578;-73
2023/06/20 01:03:18;;;;;;;14.20;9.97;;;21.30;99.90;;;;;;5020314;28;20446;-72
2023/06/20 01:06:12;;;;;;;18.47;11.67;;;21.30;99.90;;;;;;5022617;28;20520;-73
2023/06/20 01:09:03;;;;;;;14.23;10.90;;;21.30;99.90;;;;;;5023938;28;20619;-73
2023/06/20 01:11:56;;;;;;;14.63;10.77;;;21.30;99.90;;;;;;5026179;28;20913;-73
2023/06/20 01:14:49;;;;;;;13.87;11.57;;;21.30;99.90;;;;;;5024635;28;20440;-72
2023/06/20 01:17:41;;;;;;;13.87;12.37;;;21.20;99.90;;;;;;5021435;28;20822;-72
2023/06/20 01:20:32;;;;;;;16.30;12.47;;;21.30;99.90;;;;;;5025507;28;20487;-73
2023/06/20 01:23:25;;;;;;;16.07;11.67;;;21.30;99.90;;;;;;5023565;28;20452;-72
2023/06/20 01:26:18;;;;;;;35.63;12.60;;;21.20;99.90;;;;;;5027453;28;20539;-73
2023/06/20 01:29:13;;;;;;;20.40;12.60;;;21.20;99.90;;;;;;5028560;28;20583;-71
2023/06/20 01:32:04;;;;;;;18.07;11.50;;;21.20;99.90;;;;;;5023290;28;20449;-73
2023/06/20 01:34:53;;;;;;;21.43;12.40;;;21.20;99.90;;;;;;5030427;28;20823;-73
2023/06/20 01:37:41;;;;;;;16.10;11.93;;;21.20;99.90;;;;;;5026818;28;20515;-72
2023/06/20 01:40:28;;;;;;;24.00;12.83;;;21.10;99.90;;;;;;5028912;28;20820;-72
2023/06/20 01:43:15;;;;;;;18.50;12.80;;;21.20;99.90;;;;;;5031070;28;20463;-73
2023/06/20 01:46:03;;;;;;;15.30;12.90;;;21.10;99.90;;;;;;5029292;28;20464;-72
2023/06/20 01:48:50;;;;;;;16.37;13.33;;;21.00;99.90;;;;;;5032657;28;20477;-73
2023/06/20 01:51:36;;;;;;;15.37;13.87;;;21.00;99.90;;;;;;5029247;28;20523;-72
2023/06/20 01:54:22;;;;;;;15.10;13.03;;;20.80;99.90;;;;;;5026721;28;20815;-73
2023/06/20 01:57:09;;;;;;;17.00;14.07;;;20.70;99.90;;;;;;5036958;28;20457;-73
2023/06/20 01:59:57;;;;;;;15.43;12.20;;;20.80;99.90;;;;;;5026485;28;20473;-72
2023/06/20 02:02:44;;;;;;;14.80;12.43;;;20.90;99.90;;;;;;5023951;28;20569;-72
2023/06/20 02:05:32;;;;;;;14.40;11.70;;;21.10;99.90;;;;;;5024330;28;20503;-72
2023/06/20 02:08:19;;;;;;;12.43;11.00;;;21.00;99.90;;;;;;5026580;28;20441;-72
2023/06/20 02:11:05;;;;;;;12.70;11.40;;;21.10;99.90;;;;;;5026158;28;20445;-72
2023/06/20 02:13:53;;;;;;;13.13;11.80;;;21.10;99.90;;;;;;5033265;28;20544;-72
2023/06/20 02:16:40;;;;;;;14.07;11.60;;;21.00;99.90;;;;;;5027545;28;20461;-72
2023/06/20 02:19:26;;;;;;;14.90;12.00;;;21.10;99.90;;;;;;5031101;28;20467;-72
2023/06/20 02:22:15;;;;;;;15.07;11.90;;;21.00;99.90;;;;;;5027456;28;20515;-72
2023/06/20 02:25:04;;;;;;;14.00;12.60;;;20.90;99.90;;;;;;5024279;28;20523;-72
2023/06/20 02:27:54;;;;;;;12.40;10.83;;;21.00;99.90;;;;;;5027811;28;20959;-73
2023/06/20 02:30:41;;;;;;;13.10;11.67;;;21.00;99.90;;;;;;5035136;28;20481;-72
2023/06/20 02:33:32;;;;;;;12.30;11.00;;;20.90;99.90;;;;;;5027761;28;20448;-72
2023/06/20 02:36:19;;;;;;;13.03;10.10;;;21.00;99.90;;;;;;5026273;28;20448;-73
2023/06/20 02:39:05;;;;;;;13.03;11.80;;;20.80;99.90;;;;;;5030729;28;20468;-73
2023/06/20 02:41:50;;;;;;;12.90;11.10;;;20.80;99.90;;;;;;5025487;28;20442;-71
2023/06/20 02:44:36;;;;;;;11.00;10.00;;;20.80;99.90;;;;;;5039430;28;20448;-73
2023/06/20 02:47:33;;;;;;;11.37;10.10;;;20.70;99.90;;;;;;5028814;28;20455;-73
2023/06/20 02:50:24;;;;;;;13.30;9.50;;;20.70;99.90;;;;;;5021464;28;21147;-73
2023/06/20 02:53:20;;;;;;;10.60;9.60;;;20.70;99.90;;;;;;5029330;28;20973;-72
2023/06/20 02:56:10;;;;;;;12.30;9.97;;;20.70;99.90;;;;;;5030304;28;20917;-72
2023/06/20 02:59:00;;;;;;;12.73;9.40;;;20.40;99.90;;;;;;5030370;28;20546;-73
2023/06/20 03:01:49;;;;;;;11.13;10.03;;;20.40;99.90;;;;;;5024186;28;20501;-73
2023/06/20 03:04:37;;;;;;;9.20;8.27;;;20.30;99.90;;;;;;5028824;28;20593;-72
2023/06/20 03:07:24;;;;;;;8.47;7.57;;;20.30;99.90;;;;;;5023193;28;20433;-72
2023/06/20 03:10:11;;;;;;;9.03;7.70;;;20.40;99.90;;;;;;5025242;28;20472;-72
2023/06/20 03:12:57;;;;;;;9.40;8.50;;;20.40;99.90;;;;;;5023907;28;20449;-73
2023/06/20 03:15:42;;;;;;;8.63;7.73;;;20.30;99.90;;;;;;5020954;28;20609;-72
2023/06/20 03:18:29;;;;;;;8.20;7.37;;;20.20;99.90;;;;;;5032078;28;20856;-73
2023/06/20 03:21:16;;;;;;;8.50;7.20;;;20.20;99.90;;;;;;5026442;28;20456;-73
2023/06/20 03:24:01;;;;;;;8.67;7.30;;;20.10;99.90;;;;;;5029211;28;20648;-73
2023/06/20 03:26:47;;;;;;;9.17;7.30;;;20.00;99.90;;;;;;5026339;28;20440;-73
2023/06/20 03:29:32;;;;;;;7.50;6.77;;;19.80;99.90;;;;;;5031096;28;20872;-73
2023/06/20 03:32:17;;;;;;;7.87;7.10;;;19.80;99.90;;;;;;5022048;28;20827;-73
2023/06/20 03:35:04;;;;;;;9.30;7.80;;;19.70;99.90;;;;;;5029434;28;20464;-72
2023/06/20 03:37:50;;;;;;;9.60;6.47;;;19.80;99.90;;;;;;5031271;28;20437;-71
2023/06/20 03:40:36;;;;;;;6.97;6.23;;;19.80;99.90;;;;;;5020158;28;20435;-73
2023/06/20 03:43:21;;;;;;;8.43;7.50;;;19.70;99.90;;;;;;5026128;28;20495;-73
2023/06/20 03:46:07;;;;;;;10.10;8.33;;;19.70;99.90;;;;;;5025499;28;20449;-72
2023/06/20 03:48:52;;;;;;;9.43;7.17;;;19.80;99.90;;;;;;5021482;28;20473;-72
2023/06/20 03:51:38;;;;;;;8.70;6.90;;;19.90;99.90;;;;;;5031239;28;20436;-72
2023/06/20 03:54:25;;;;;;;7.77;6.40;;;20.00;99.90;;;;;;5022265;28;20448;-72
2023/06/20 03:57:11;;;;;;;8.37;7.47;;;19.90;99.90;;;;;;5028789;28;20444;-73
2023/06/20 03:59:56;;;;;;;8.00;6.53;;;19.90;99.90;;;;;;5022507;28;20832;-73
2023/06/20 04:02:43;;;;;;;10.43;7.00;;;19.70;99.90;;;;;;5023184;28;20738;-73
2023/06/20 04:05:29;;;;;;;10.40;7.40;;;19.70;99.90;;;;;;5024888;28;20524;-72
2023/06/20 04:08:14;;;;;;;8.57;7.40;;;19.70;99.90;;;;;;5027637;28;20495;-73
2023/06/20 04:11:01;;;;;;;10.87;7.37;;;19.70;99.90;;;;;;5028692;28;20480;-72
2023/06/20 04:13:47;;;;;;;11.63;7.30;;;19.80;99.90;;;;;;5028532;28;21014;-72
2023/06/20 04:16:32;;;;;;;8.40;7.57;;;19.80;99.90;;;;;;5021757;28;21043;-72
2023/06/20 04:19:18;;;;;;;8.13;7.30;;;19.70;99.90;;;;;;5025188;28;21167;-73
2023/06/20 04:22:04;;;;;;;10.00;8.53;;;19.80;99.90;;;;;;5021116;28;20457;-72
2023/06/20 04:24:49;;;;;;;8.43;7.60;;;19.70;99.90;;;;;;5025291;28;20568;-71
2023/06/20 04:27:36;;;;;;;8.80;7.90;;;19.80;99.90;;;;;;5023720;28;20449;-72
2023/06/20 04:30:22;;;;;;;8.57;7.00;;;19.90;99.90;;;;;;5020676;28;20484;-71
2023/06/20 04:33:07;;;;;;;9.43;8.03;;;19.80;99.90;;;;;;5024503;28;20799;-72
2023/06/20 04:35:54;;;;;;;10.00;8.23;;;19.90;99.90;;;;;;5024085;28;21010;-71
2023/06/20 04:38:40;;;;;;;8.60;7.80;;;19.90;99.90;;;;;;5024009;28;20419;-72
2023/06/20 04:41:25;;;;;;;9.93;8.37;;;20.00;99.90;;;;;;5024669;28;20461;-72
2023/06/20 04:44:12;;;;;;;9.60;7.47;;;20.00;99.90;;;;;;5020129;28;20624;-72
2023/06/20 04:46:58;;;;;;;8.37;7.57;;;20.10;99.90;;;;;;5019702;28;20461;-72
2023/06/20 04:49:43;;;;;;;7.93;7.13;;;20.10;99.90;;;;;;5021826;28;20980;-72
2023/06/20 04:52:29;;;;;;;11.70;7.93;;;20.20;99.90;;;;;;5018622;28;20453;-72
2023/06/20 04:55:14;;;;;;;8.37;7.57;;;20.20;99.90;;;;;;5023476;28;20452;-72
2023/06/20 04:58:00;;;;;;;8.67;7.87;;;20.20;99.90;;;;;;5022848;28;20500;-73
2023/06/20 05:00:48;;;;;;;13.10;6.90;;;20.30;99.90;;;;;;5030075;28;20539;-72
2023/06/20 05:03:33;;;;;;;11.60;7.60;;;20.40;99.90;;;;;;5025297;28;20492;-72
2023/06/20 05:06:19;;;;;;;8.33;7.63;;;20.60;99.90;;;;;;5028027;28;20457;-72
2023/06/20 05:09:04;;;;;;;9.10;7.80;;;20.60;99.90;;;;;;5031621;28;20932;-72
2023/06/20 05:11:49;;;;;;;10.93;7.60;;;20.70;99.90;;;;;;5024438;28;20974;-72
2023/06/20 05:14:35;;;;;;;11.27;8.90;;;20.60;99.90;;;;;;5020675;28;20564;-72
2023/06/20 05:17:22;;;;;;;10.07;9.10;;;20.70;99.90;;;;;;5026717;28;20574;-72
2023/06/20 05:20:08;;;;;;;9.47;8.47;;;20.90;99.90;;;;;;5025329;28;20473;-72
2023/06/20 05:22:53;;;;;;;9.03;8.13;;;20.90;99.90;;;;;;5020184;28;20965;-72
2023/06/20 05:25:39;;;;;;;20.00;8.77;;;21.00;99.90;;;;;;5026307;28;20460;-72
2023/06/20 05:28:25;;;;;;;10.30;8.03;;;21.20;99.90;;;;;;5017098;28;20437;-72
2023/06/20 05:31:10;;;;;;;10.00;9.00;;;21.30;99.90;;;;;;5026580;28;20570;-72
2023/06/20 05:33:57;;;;;;;9.80;8.90;;;21.30;99.90;;;;;;5029468;28;20445;-72
2023/06/20 05:36:42;;;;;;;9.17;8.27;;;21.20;99.90;;;;;;5019818;28;20547;-72
2023/06/20 05:39:28;;;;;;;11.57;8.67;;;21.30;99.90;;;;;;5030677;28;20980;-71
2023/06/20 05:42:13;;;;;;;9.50;8.43;;;21.40;99.90;;;;;;5024725;28;20531;-72
2023/06/20 05:44:59;;;;;;;13.53;7.90;;;21.40;99.90;;;;;;5025806;28;20412;-72
2023/06/20 05:47:45;;;;;;;9.43;7.90;;;21.50;99.90;;;;;;5020757;28;20461;-72
2023/06/20 05:50:32;;;;;;;12.77;9.30;;;21.60;99.90;;;;;;5021426;28;20481;-72
2023/06/20 05:53:17;;;;;;;11.20;9.10;;;21.60;99.90;;;;;;5023102;28;20486;-73
2023/06/20 05:56:03;;;;;;;16.10;8.50;;;21.70;99.90;;;;;;5033532;28;21149;-72
2023/06/20 05:58:48;;;;;;;10.73;9.53;;;21.80;99.90;;;;;;5020944;28;20491;-72
2023/06/20 06:01:34;;;;;;;10.43;8.90;;;21.80;99.90;;;;;;5021712;28;22379;-72
2023/06/20 06:04:19;;;;;;;16.10;9.50;;;21.80;99.90;;;;;;5022255;28;20440;-72
2023/06/20 06:07:07;;;;;;;11.70;8.90;;;21.90;99.90;;;;;;5019760;28;20472;-72
2023/06/20 06:09:52;;;;;;;11.03;9.73;;;22.00;99.90;;;;;;5021879;28;20543;-72
2023/06/20 06:12:38;;;;;;;9.93;9.03;;;22.00;99.90;;;;;;5022878;28;20589;-71
2023/06/20 06:15:23;;;;;;;10.27;9.23;;;22.10;99.90;;;;;;5021176;28;20452;-73
2023/06/20 06:18:09;;;;;;;10.90;9.80;;;22.20;99.90;;;;;;5030605;28;20440;-72
2023/06/20 06:20:54;;;;;;;10.33;9.43;;;22.30;99.90;;;;;;5080470;22;20505;-73
2023/06/20 06:23:41;;;;;;;11.00;9.90;;;22.50;99.90;;;;;;5067661;28;20565;-73
2023/06/20 06:26:27;;;;;;;12.43;9.37;;;22.60;99.90;;;;;;5069110;28;20455;-73
2023/06/20 06:29:12;;;;;;;12.00;10.80;;;22.70;99.90;;;;;;5072727;28;20987;-73
2023/06/20 06:31:59;;;;;;;12.57;9.87;;;22.70;99.90;;;;;;5069146;28;20471;-73
2023/06/20 06:34:45;;;;;;;11.90;8.93;;;22.70;99.90;;;;;;5071135;28;20455;-73
2023/06/20 06:37:32;;;;;;;13.07;10.70;;;22.80;99.90;;;;;;5078071;28;20966;-73
2023/06/20 06:40:20;;;;;;;11.17;9.90;;;22.90;99.90;;;;;;5065923;28;20459;-74
2023/06/20 06:43:05;;;;;;;13.30;10.00;;;23.00;99.90;;;;;;5074876;28;20444;-73
2023/06/20 06:45:51;;;;;;;15.83;11.00;;;23.10;99.90;;;;;;5072505;28;20909;-74
2023/06/20 06:48:36;;;;;;;12.27;10.33;;;23.20;99.90;;;;;;5067189;28;20447;-72
2023/06/20 06:51:22;;;;;;;13.83;11.40;;;23.30;99.90;;;;;;5069021;28;20496;-72
2023/06/20 06:54:07;;;;;;;12.40;11.20;;;23.30;99.90;;;;;;5066662;28;20446;-73
2023/06/20 06:56:54;;;;;;;11.97;10.83;;;23.30;99.90;;;;;;5067641;28;20970;-72
2023/06/20 06:59:40;;;;;;;12.60;11.40;;;23.40;99.90;;;;;;5068304;28;20610;-73
2023/06/20 07:02:27;;;;;;;18.13;11.13;;;23.40;99.90;;;;;;5068811;28;20468;-73
2023/06/20 07:05:12;;;;;;;16.03;11.80;;;23.40;99.90;;;;;;5074119;28;20800;-73
2023/06/20 07:07:58;;;;;;;12.23;11.03;;;23.50;99.90;;;;;;5067175;28;20435;-73
2023/06/20 07:10:43;;;;;;;12.50;11.30;;;23.60;99.90;;;;;;5064954;28;20840;-73
2023/06/20 07:13:30;;;;;;;11.70;10.50;;;23.50;99.90;;;;;;5071541;28;20439;-73
2023/06/20 07:16:16;;;;;;;11.90;10.63;;;23.60;99.90;;;;;;5066874;28;20489;-73
2023/06/20 07:19:02;;;;;;;13.00;11.70;;;23.70;99.90;;;;;;5073230;28;20461;-73
2023/06/20 07:21:47;;;;;;;12.17;11.07;;;23.80;99.90;;;;;;5073333;28;20845;-73
2023/06/20 07:24:33;;;;;;;11.67;10.47;;;23.90;99.90;;;;;;5067293;28;20422;-73
2023/06/20 07:27:18;;;;;;;11.83;10.70;;;24.00;99.90;;;;;;5066355;28;20443;-73
2023/06/20 07:30:06;;;;;;;12.53;10.80;;;24.10;99.90;;;;;;5070105;28;20470;-73
2023/06/20 07:32:52;;;;;;;13.50;11.03;;;24.10;99.90;;;;;;5068093;28;21092;-72
2023/06/20 07:35:37;;;;;;;11.83;10.70;;;24.20;99.90;;;;;;5065337;28;20946;-73
2023/06/20 07:38:23;;;;;;;20.50;11.20;;;24.30;99.90;;;;;;5070138;28;20450;-72
2023/06/20 07:41:09;;;;;;;13.43;10.97;;;24.40;99.90;;;;;;5069914;28;20558;-73
2023/06/20 07:43:54;;;;;;;12.93;11.43;;;24.50;99.90;;;;;;5067897;28;20549;-73
2023/06/20 07:46:41;;;;;;;11.60;9.93;;;24.50;99.90;;;;;;5066198;28;20537;-73
2023/06/20 07:49:28;;;;;;;11.30;10.20;;;24.60;99.90;;;;;;5066682;28;20596;-73
2023/06/20 07:52:13;;;;;;;15.03;10.77;;;24.60;99.90;;;;;;5066080;28;20462;-73
2023/06/20 07:55:01;;;;;;;11.43;10.33;;;24.70;99.90;;;;;;5069049;28;20808;-73
2023/06/20 07:57:46;;;;;;;11.63;10.23;;;24.80;99.90;;;;;;5064880;28;21784;-73
2023/06/20 08:00:32;;;;;;;11.60;10.40;;;24.70;99.90;;;;;;5062972;28;20980;-73
2023/06/20 08:03:21;;;;;;;11.47;10.33;;;24.70;99.90;;;;;;5067124;28;20847;-73
2023/06/20 08:06:07;;;;;;;13.70;10.03;;;24.70;99.90;;;;;;5066002;28;20454;-73
2023/06/20 08:08:52;;;;;;;12.70;11.40;;;24.80;99.90;;;;;;5067416;28;20466;-73
2023/06/20 08:11:38;;;;;;;13.70;11.70;;;24.80;99.90;;;;;;5064695;28;20513;-72
2023/06/20 08:14:23;;;;;;;11.57;10.40;;;24.90;99.90;;;;;;5071254;28;20524;-73
2023/06/20 08:17:09;;;;;;;13.53;10.80;;;25.10;99.90;;;;;;5066547;28;20514;-73
2023/06/20 08:19:59;;;;;;;11.33;10.10;;;25.00;99.90;;;;;;5066334;28;20546;-73
2023/06/20 08:22:45;;;;;;;12.00;9.30;;;25.10;99.90;;;;;;5068847;28;20451;-73
2023/06/20 08:25:30;;;;;;;14.83;10.73;;;25.20;99.90;;;;;;5069552;28;20442;-73
2023/06/20 08:28:16;;;;;;;11.07;9.90;;;25.00;99.90;;;;;;5073703;28;20514;-73
2023/06/20 08:31:03;;;;;;;14.93;10.87;;;25.10;99.90;;;;;;5066539;28;20523;-73
2023/06/20 08:33:48;;;;;;;16.87;10.93;;;25.10;99.90;;;;;;5070600;28;20468;-72
2023/06/20 08:36:36;;;;;;;11.47;10.27;;;25.10;99.90;;;;;;5064143;28;20447;-73
2023/06/20 08:39:21;;;;;;;19.23;12.00;;;25.30;99.90;;;;;;5066493;28;20470;-73
2023/06/20 08:42:07;;;;;;;12.93;10.50;;;25.40;99.90;;;;;;5065583;28;20970;-73
2023/06/20 08:44:55;;;;;;;12.17;10.57;;;25.40;99.90;;;;;;5063029;28;20463;-73
2023/06/20 08:47:40;;;;;;;10.73;9.50;;;25.50;99.90;;;;;;5066571;28;20982;-73
2023/06/20 08:50:26;;;;;;;13.13;11.73;;;25.50;99.90;;;;;;5066538;28;20474;-73
2023/06/20 08:53:14;;;;;;;12.90;10.37;;;25.70;99.90;;;;;;5067279;28;20495;-73
2023/06/20 08:56:01;;;;;;;15.77;12.10;;;25.70;99.90;;;;;;5063096;28;20820;-73
2023/06/20 08:58:47;;;;;;;12.17;10.90;;;25.70;99.90;;;;;;5070198;28;20452;-73
2023/06/20 09:01:35;;;;;;;11.97;10.67;;;25.70;99.90;;;;;;5066189;28;20447;-73
2023/06/20 09:04:20;;;;;;;12.47;10.37;;;25.70;99.90;;;;;;5066320;28;20646;-73
2023/06/20 09:07:17;;;;;;;13.90;10.43;;;25.70;99.90;;;;;;5063167;28;20447;-73
2023/06/20 09:10:04;;;;;;;16.00;9.80;;;25.90;99.90;;;;;;5066342;28;20527;-73
2023/06/20 09:12:51;;;;;;;10.60;9.70;;;25.90;99.90;;;;;;5065626;28;21054;-73
2023/06/20 09:15:38;;;;;;;14.27;11.47;;;26.10;99.90;;;;;;5068515;28;20453;-73
2023/06/20 09:18:26;;;;;;;11.07;9.93;;;26.20;99.90;;;;;;5068101;28;20929;-73
2023/06/20 09:21:15;;;;;;;11.30;10.30;;;26.20;99.90;;;;;;5064427;28;20465;-73
2023/06/20 09:24:05;;;;;;;13.07;10.63;;;26.40;99.90;;;;;;5066588;28;20458;-73
2023/06/20 09:26:52;;;;;;;11.20;9.73;;;26.50;99.90;;;;;;5063413;28;20672;-74
2023/06/20 09:29:50;;;;;;;12.60;9.90;;;26.60;99.90;;;;;;5063639;28;20469;-73
2023/06/20 09:32:39;;;;;;;11.57;10.43;;;26.60;99.90;;;;;;5067973;28;20601;-73
2023/06/20 09:35:25;;;;;;;14.10;10.53;;;26.70;99.90;;;;;;5068098;28;20446;-73
2023/06/20 09:38:10;;;;;;;12.40;9.23;;;26.70;99.90;;;;;;5065663;28;20461;-73
2023/06/20 09:40:56;;;;;;;10.30;9.30;;;26.80;99.90;;;;;;5061815;28;20459;-73
2023/06/20 09:43:43;;;;;;;11.20;10.00;;;26.90;99.90;;;;;;5071081;28;20438;-73
2023/06/20 09:46:29;;;;;;;11.20;9.33;;;26.80;99.90;;;;;;5068068;28;20443;-73
2023/06/20 09:49:16;;;;;;;10.43;8.90;;;26.90;99.90;;;;;;5070289;28;20470;-74
2023/06/20 09:52:05;;;;;;;9.90;8.90;;;26.80;99.90;;;;;;5064917;28;20625;-73
2023/06/20 09:54:56;;;;;;;10.03;9.03;;;26.80;99.90;;;;;;5075738;28;20439;-73
2023/06/20 09:57:43;;;;;;;16.20;9.57;;;26.80;99.90;;;;;;5067978;28;20454;-73
2023/06/20 10:00:31;;;;;;;14.67;10.13;;;26.90;99.90;;;;;;5070119;28;20978;-73
2023/06/20 10:03:16;;;;;;;10.07;9.07;;;27.00;99.90;;;;;;5067248;28;20438;-74
2023/06/20 10:06:04;;;;;;;12.70;8.80;;;27.10;99.90;;;;;;5066947;28;20449;-74
2023/06/20 10:08:51;;;;;;;12.47;7.77;;;27.30;99.90;;;;;;5069723;28;21469;-74
2023/06/20 10:11:38;;;;;;;9.60;8.43;;;27.40;97.10;;;;;;5067791;28;20465;-73
2023/06/20 10:14:23;;;;;;;11.37;9.40;;;27.50;97.10;;;;;;5070401;28;20455;-73
2023/06/20 10:17:12;;;;;;;10.33;8.70;;;27.60;96.10;;;;;;5068009;28;20435;-73
2023/06/20 10:19:59;;;;;;;10.37;9.10;;;27.70;94.60;;;;;;5061519;28;20477;-71
2023/06/20 10:22:44;;;;;;;12.30;9.50;;;27.80;96.50;;;;;;5075927;28;20439;-72
2023/06/20 10:25:30;;;;;;;10.07;9.07;;;27.90;93.50;;;;;;5072494;28;20442;-72
2023/06/20 10:28:19;;;;;;;10.53;9.13;;;28.00;85.40;;;;;;5070648;28;20423;-72
2023/06/20 10:31:05;;;;;;;10.83;8.97;;;27.90;75.20;;;;;;5073228;28;20470;-72
2023/06/20 10:33:51;;;;;;;11.10;8.07;;;27.90;76.50;;;;;;5081697;28;20831;-71
2023/06/20 10:36:39;;;;;;;11.37;7.87;;;28.00;78.70;;;;;;5069707;28;20458;-71
2023/06/20 10:39:31;;;;;;;9.33;8.43;;;28.10;74.70;;;;;;5071392;28;20457;-72
2023/06/20 10:42:31;;;;;;;11.07;8.53;;;28.10;72.50;;;;;;5071261;28;20983;-71
2023/06/20 10:45:22;;;;;;;10.60;8.90;;;28.20;74.10;;;;;;5061019;28;20588;-72
2023/06/20 10:48:07;;;;;;;11.57;7.80;;;28.30;75.30;;;;;;5072579;28;20431;-72
2023/06/20 10:51:00;;;;;;;9.03;8.03;;;28.50;80.50;;;;;;5067961;28;20576;-71
2023/06/20 10:53:45;;;;;;;7.90;7.10;;;28.50;64.50;;;;;;5074994;28;20540;-72
2023/06/20 10:56:31;;;;;;;8.47;7.67;;;28.40;60.20;;;;;;5082404;28;20497;-72
2023/06/20 10:59:19;;;;;;;13.70;8.43;;;28.40;61.00;;;;;;5067375;28;20459;-71
2023/06/20 11:02:05;;;;;;;8.27;7.30;;;28.50;61.60;;;;;;5068082;28;21014;-72
2023/06/20 11:04:51;;;;;;;8.67;7.17;;;28.50;58.10;;;;;;5075318;28;20447;-72
2023/06/20 11:07:51;;;;;;;9.73;8.30;;;28.60;51.60;;;;;;5068846;28;20443;-72
2023/06/20 11:10:37;;;;;;;13.23;7.80;;;28.60;50.70;;;;;;5068682;28;20481;-71
2023/06/20 11:13:23;;;;;;;8.50;7.57;;;28.60;50.70;;;;;;5077319;28;20462;-72
2023/06/20 11:16:16;;;;;;;9.90;7.17;;;28.70;56.00;;;;;;5067566;28;20851;-72
2023/06/20 11:19:02;;;;;;;12.50;7.20;;;28.80;46.10;;;;;;5067692;28;20594;-72
2023/06/20 11:21:47;;;;;;;10.30;7.13;;;28.90;54.50;;;;;;5073128;28;20467;-71
2023/06/20 11:24:35;;;;;;;9.03;7.87;;;29.00;52.70;;;;;;5066900;28;20456;-72
2023/06/20 11:27:20;;;;;;;14.77;8.00;;;29.10;55.80;;;;;;5074310;28;20469;-71
2023/06/20 11:30:07;;;;;;;9.00;8.10;;;29.10;47.10;;;;;;5063829;28;20483;-72
2023/06/20 11:33:09;;;;;;;8.87;7.97;;;29.20;51.90;;;;;;5068641;28;20475;-71
2023/06/20 11:35:56;;;;;;;8.57;7.67;;;29.30;50.40;;;;;;5063212;28;20447;-72
2023/06/20 11:38:42;;;;;;;9.07;6.33;;;29.20;41.80;;;;;;5061253;28;20464;-72
2023/06/20 11:41:32;;;;;;;9.03;6.83;;;29.30;44.20;;;;;;5064680;28;20439;-71
2023/06/20 11:44:28;;;;;;;10.97;6.67;;;29.40;41.20;;;;;;5067158;28;20445;-74
2023/06/20 11:47:13;;;;;;;7.83;7.03;;;29.50;41.60;;;;;;5070917;28;20443;-73
2023/06/20 11:49:58;;;;;;;10.63;6.93;;;29.70;44.80;;;;;;5071791;28;20842;-73
2023/06/20 11:52:44;;;;;;;7.40;6.23;;;29.60;32.30;;;;;;5064864;28;20848;-73
2023/06/20 11:55:46;;;;;;;10.37;7.83;;;29.50;34.30;;;;;;5067065;28;20443;-73
2023/06/20 11:58:39;;;;;;;7.97;7.23;;;29.60;38.70;;;;;;5066967;28;20799;-74
2023/06/20 12:01:25;;;;;;;8.70;7.83;;;29.80;41.70;;;;;;5066012;28;20436;-74
2023/06/20 12:04:12;;;;;;;9.67;8.27;;;29.70;38.70;;;;;;5072444;28;21162;-73
2023/06/20 12:07:03;;;;;;;10.53;6.60;;;29.80;43.20;;;;;;5069238;28;20516;-73
2023/06/20 12:09:49;;;;;;;7.40;6.57;;;29.90;39.90;;;;;;5067541;28;20567;-74
2023/06/20 12:12:34;;;;;;;9.50;7.53;;;30.10;40.40;;;;;;5065130;28;20470;-73
2023/06/20 12:15:22;;;;;;;8.33;7.37;;;30.30;42.60;;;;;;5069839;28;20800;-74
2023/06/20 12:18:08;;;;;;;9.47;8.47;;;30.30;37.90;;;;;;5066346;28;20569;-73
2023/06/20 12:20:53;;;;;;;10.10;8.60;;;30.20;35.80;;;;;;5065362;28;20502;-72
2023/06/20 12:23:39;;;;;;;11.07;8.13;;;30.20;39.20;;;;;;5068288;28;20445;-75
2023/06/20 12:26:25;;;;;;;9.83;7.77;;;30.30;44.30;;;;;;5067774;28;20530;-75
2023/06/20 12:29:10;;;;;;;8.60;7.30;;;30.50;41.00;;;;;;5064074;28;21517;-74
2023/06/20 12:31:57;;;;;;;7.70;6.87;;;30.60;44.00;;;;;;5068357;28;20598;-74
2023/06/20 12:34:42;;;;;;;20.10;6.83;;;30.70;31.10;;;;;;5071275;28;20822;-75
2023/06/20 12:37:28;;;;;;;9.43;7.50;;;30.90;32.80;;;;;;5068875;28;20582;-75
2023/06/20 12:40:13;;;;;;;11.37;5.97;;;30.90;29.90;;;;;;5066904;28;20472;-75
2023/06/20 12:42:59;;;;;;;9.07;6.03;;;31.00;27.00;;;;;;5064984;28;20458;-76
2023/06/20 12:45:47;;;;;;;8.43;6.30;;;31.10;28.70;;;;;;5070059;28;20436;-75
2023/06/20 12:48:33;;;;;;;7.93;6.00;;;31.10;25.30;;;;;;5064818;28;20973;-75
2023/06/20 12:51:19;;;;;;;7.40;6.60;;;31.20;26.90;;;;;;5065011;28;21194;-75
2023/06/20 12:54:04;;;;;;;6.27;5.67;;;31.10;22.40;;;;;;5070750;28;20783;-74
2023/06/20 12:56:50;;;;;;;6.83;5.20;;;30.80;24.20;;;;;;5068559;28;20486;-74
2023/06/20 12:59:35;;;;;;;7.40;4.87;;;30.80;22.60;;;;;;5066265;28;20471;-75
2023/06/20 13:02:23;;;;;;;4.83;4.17;;;30.90;21.30;;;;;;5061471;28;20573;-74
2023/06/20 13:05:09;;;;;;;10.73;4.30;;;30.90;17.80;;;;;;5064427;28;20454;-74
2023/06/20 13:07:54;;;;;;;6.97;4.90;;;31.10;19.90;;;;;;5066898;28;20518;-73
2023/06/20 13:10:41;;;;;;;7.40;5.10;;;31.10;18.70;;;;;;5063664;28;20469;-73
2023/06/20 13:13:26;;;;;;;5.90;5.23;;;31.00;21.90;;;;;;5068332;28;20492;-75
2023/06/20 13:16:13;;;;;;;7.50;6.40;;;31.20;20.60;;;;;;5065335;28;20533;-75
2023/06/20 13:19:01;;;;;;;6.50;5.47;;;31.10;20.40;;;;;;5067550;28;20449;-76
2023/06/20 13:21:49;;;;;;;6.00;4.77;;;31.30;19.00;;;;;;5069998;28;20449;-76
2023/06/20 13:24:38;;;;;;;9.13;6.13;;;31.30;19.40;;;;;;5063512;28;20436;-76
2023/06/20 13:27:26;;;;;;;8.83;6.10;;;31.50;21.10;;;;;;5064191;28;20524;-76
2023/06/20 13:30:15;;;;;;;6.47;5.50;;;31.70;21.70;;;;;;5071424;28;20557;-76
2023/06/20 13:33:00;;;;;;;8.20;5.50;;;31.90;21.70;;;;;;5071969;28;20553;-75
2023/06/20 13:35:45;;;;;;;6.53;5.47;;;32.00;22.40;;;;;;5069370;28;20502;-74
2023/06/20 13:38:32;;;;;;;7.80;5.90;;;32.10;20.80;;;;;;5066120;28;20467;-75
2023/06/20 13:41:18;;;;;;;6.43;5.70;;;32.30;19.70;;;;;;5065247;28;20991;-75
2023/06/20 13:44:04;;;;;;;7.70;6.20;;;32.30;19.50;;;;;;5069075;28;20434;-76
2023/06/20 13:46:51;;;;;;;7.63;6.10;;;32.40;20.60;;;;;;5073132;28;20445;-75
2023/06/20 13:49:36;;;;;;;7.60;6.73;;;32.40;21.00;;;;;;5072019;28;20458;-74
2023/06/20 13:52:22;;;;;;;8.67;6.97;;;32.30;18.00;;;;;;5071893;28;21032;-75
2023/06/20 13:55:10;;;;;;;7.90;6.33;;;32.00;19.80;;;;;;5074016;28;20807;-75
2023/06/20 13:57:56;;;;;;;8.63;6.60;;;32.00;19.50;;;;;;5069355;28;20847;-75
2023/06/20 14:00:41;;;;;;;8.00;6.53;;;32.00;19.90;;;;;;5074419;28;20458;-76
2023/06/20 14:03:27;;;;;;;7.90;5.73;;;32.10;20.80;;;;;;5070764;28;20447;-75
2023/06/20 14:06:13;;;;;;;10.73;7.50;;;32.00;18.40;;;;;;5069970;28;21232;-72
2023/06/20 14:08:58;;;;;;;7.40;5.97;;;32.00;18.80;;;;;;5067355;28;20446;-75
2023/06/20 14:11:45;;;;;;;9.13;7.40;;;32.20;20.20;;;;;;5068599;28;20446;-75
2023/06/20 14:14:31;;;;;;;7.47;6.70;;;32.30;20.20;;;;;;5069056;28;20437;-75
2023/06/20 14:17:16;;;;;;;9.63;6.17;;;32.50;22.30;;;;;;5069605;28;20461;-75
2023/06/20 14:20:02;;;;;;;9.20;7.03;;;32.60;23.80;;;;;;5068555;28;20621;-75